createdAt,value
2022-10-17T00:00:39.213Z,10.38
2022-10-17T00:03:06.593Z,10.32
2022-10-17T00:05:33.925Z,9.38
2022-10-17T00:08:01.286Z,8.18
2022-10-17T00:10:28.623Z,7.82
2022-10-17T00:12:55.983Z,7.93
2022-10-17T00:15:23.327Z,7.72
2022-10-17T00:17:50.652Z,7.18
2022-10-17T00:20:18.059Z,10.02
2022-10-17T00:22:45.418Z,6.43
2022-10-17T00:25:12.760Z,8.57
2022-10-17T00:27:40.678Z,10.50
2022-10-17T00:30:12.052Z,10.02
2022-10-17T00:32:39.507Z,10.60
2022-10-17T00:35:07.181Z,9.18
2022-10-17T00:37:34.672Z,7.57
2022-10-17T00:40:02.028Z,9.10
2022-10-17T00:42:29.724Z,10.48
2022-10-17T00:45:19.424Z,7.20
2022-10-17T00:47:49.089Z,6.80
2022-10-17T00:50:16.444Z,6.35
2022-10-17T00:52:44.008Z,5.50
2022-10-17T00:55:15.431Z,10.82
2022-10-17T00:57:43.104Z,8.75
2022-10-17T01:00:11.156Z,6.03
2022-10-17T01:02:38.704Z,7.13
2022-10-17T01:05:06.558Z,7.65
2022-10-17T01:07:37.228Z,8.20
2022-10-17T01:10:06.378Z,7.65
2022-10-17T01:12:49.162Z,6.75
2022-10-17T01:15:20.671Z,5.95
2022-10-17T01:18:16.042Z,6.43
2022-10-17T01:21:03.125Z,8.45
2022-10-17T01:23:39.741Z,6.00
2022-10-17T01:26:11.227Z,9.25
2022-10-17T01:29:08.752Z,6.97
2022-10-17T01:32:00.459Z,7.13
2022-10-17T01:34:33.608Z,4.40
2022-10-17T01:37:36.587Z,7.15
2022-10-17T01:40:17.322Z,5.65
2022-10-17T01:42:53.599Z,6.22
2022-10-17T01:45:31.636Z,6.25
2022-10-17T01:48:04.689Z,7.65
2022-10-17T01:50:37.359Z,6.03
2022-10-17T01:53:26.983Z,6.57
2022-10-17T01:55:54.561Z,6.18
2022-10-17T01:58:45.538Z,7.05
2022-10-17T02:01:13.006Z,12.15
2022-10-17T02:03:41.186Z,8.30
2022-10-17T02:06:08.469Z,6.63
2022-10-17T02:08:47.210Z,5.45
2022-10-17T02:11:19.030Z,6.68
2022-10-17T02:13:52.308Z,5.38
2022-10-17T02:16:57.292Z,8.07
2022-10-17T02:19:29.036Z,4.50
2022-10-17T02:22:23.194Z,11.75
2022-10-17T02:24:53.055Z,5.63
2022-10-17T02:27:40.805Z,12.88
2022-10-17T02:30:30.078Z,9.75
2022-10-17T02:33:03.814Z,6.28
2022-10-17T02:35:33.543Z,7.97
2022-10-17T02:38:01.836Z,9.20
2022-10-17T02:40:29.287Z,6.05
2022-10-17T02:42:56.892Z,8.07
2022-10-17T02:45:24.236Z,6.88
2022-10-17T02:48:04.464Z,9.20
2022-10-17T02:51:07.090Z,8.93
2022-10-17T02:53:55.275Z,7.57
2022-10-17T02:56:22.776Z,6.15
2022-10-17T02:58:54.600Z,5.78
2022-10-17T03:01:21.995Z,7.22
2022-10-17T03:03:49.376Z,8.52
2022-10-17T03:06:16.871Z,5.43
2022-10-17T03:08:46.410Z,6.28
2022-10-17T03:11:13.942Z,6.97
2022-10-17T03:13:41.302Z,5.53
2022-10-17T03:16:08.733Z,5.70
2022-10-17T03:18:36.503Z,9.23
2022-10-17T03:21:04.711Z,5.43
2022-10-17T03:23:32.161Z,8.15
2022-10-17T03:26:05.519Z,4.25
2022-10-17T03:28:34.342Z,5.32
2022-10-17T03:31:07.633Z,5.35
2022-10-17T03:33:36.320Z,3.30
2022-10-17T03:36:11.768Z,4.25
2022-10-17T03:38:39.215Z,6.47
2022-10-17T03:41:07.311Z,5.93
2022-10-17T03:43:36.285Z,7.97
2022-10-17T03:46:03.951Z,5.18
2022-10-17T03:48:31.431Z,6.20
2022-10-17T03:51:01.280Z,5.35
2022-10-17T03:53:29.540Z,4.78
2022-10-17T03:55:57.899Z,6.47
2022-10-17T03:58:25.253Z,9.52
2022-10-17T04:00:54.882Z,7.13
2022-10-17T04:03:22.252Z,5.95
2022-10-17T04:05:49.583Z,8.63
2022-10-17T04:08:17.076Z,5.07
2022-10-17T04:11:09.431Z,8.48
2022-10-17T04:13:36.986Z,5.00
2022-10-17T04:16:06.816Z,4.32
2022-10-17T04:18:36.563Z,6.50
2022-10-17T04:21:04.726Z,9.57
2022-10-17T04:23:32.480Z,8.50
2022-10-17T04:26:07.122Z,7.22
2022-10-17T04:28:34.736Z,7.30
2022-10-17T04:31:06.015Z,7.53
2022-10-17T04:33:39.262Z,5.80
2022-10-17T04:36:09.899Z,6.88
2022-10-17T04:38:37.304Z,6.32
2022-10-17T04:41:07.873Z,8.45
2022-10-17T04:43:37.092Z,5.70
2022-10-17T04:46:06.785Z,12.13
2022-10-17T04:48:34.082Z,7.10
2022-10-17T04:51:03.127Z,5.93
2022-10-17T04:53:39.673Z,7.10
2022-10-17T04:56:17.847Z,10.10
2022-10-17T04:58:45.514Z,9.20
2022-10-17T05:01:17.901Z,9.13
2022-10-17T05:03:49.600Z,5.95
2022-10-17T05:06:24.759Z,9.57
2022-10-17T05:09:16.651Z,10.52
2022-10-17T05:11:44.339Z,6.65
2022-10-17T05:14:12.590Z,9.85
2022-10-17T05:16:39.879Z,11.93
2022-10-17T05:19:08.090Z,15.65
2022-10-17T05:21:42.119Z,13.65
2022-10-17T05:24:09.898Z,6.75
2022-10-17T05:26:38.942Z,11.98
2022-10-17T05:29:06.319Z,9.85
2022-10-17T05:31:37.899Z,12.10
2022-10-17T05:34:09.059Z,9.48
2022-10-17T05:36:39.067Z,8.95
2022-10-17T05:39:06.646Z,9.95
2022-10-17T05:41:35.198Z,12.73
2022-10-17T05:44:05.384Z,6.78
2022-10-17T05:46:43.324Z,6.93
2022-10-17T05:49:19.749Z,7.07
2022-10-17T05:51:59.700Z,12.13
2022-10-17T05:54:27.222Z,13.32
2022-10-17T05:56:55.018Z,13.77
2022-10-17T05:59:26.166Z,14.18
2022-10-17T06:02:07.606Z,8.77
2022-10-17T06:04:35.363Z,12.50
2022-10-17T06:07:03.565Z,12.00
2022-10-17T06:09:32.549Z,10.32
2022-10-17T06:11:59.972Z,13.13
2022-10-17T06:14:27.359Z,9.75
2022-10-17T06:17:01.120Z,10.73
2022-10-17T06:19:28.554Z,12.20
2022-10-17T06:21:57.524Z,14.07
2022-10-17T06:24:26.942Z,10.57
2022-10-17T06:26:54.677Z,15.02
2022-10-17T06:29:22.691Z,10.15
2022-10-17T06:31:52.352Z,12.00
2022-10-17T06:34:20.502Z,11.75
2022-10-17T06:36:48.186Z,8.20
2022-10-17T06:39:15.866Z,11.68
2022-10-17T06:42:01.937Z,15.45
2022-10-17T06:44:46.271Z,11.20
2022-10-17T06:47:33.052Z,11.93
2022-10-17T06:50:06.613Z,12.05
2022-10-17T06:52:45.148Z,13.02
2022-10-17T06:55:32.695Z,13.63
2022-10-17T06:58:14.449Z,12.40
2022-10-17T07:00:46.091Z,16.55
2022-10-17T07:03:13.665Z,12.18
2022-10-17T07:05:40.984Z,11.05
2022-10-17T07:08:08.733Z,15.20
2022-10-17T07:10:38.809Z,17.10
2022-10-17T07:13:08.035Z,12.18
2022-10-17T07:15:37.359Z,11.73
2022-10-17T07:18:04.959Z,11.15
2022-10-17T07:20:32.631Z,10.23
2022-10-17T07:23:00.088Z,8.15
2022-10-17T07:25:28.462Z,9.80
2022-10-17T07:28:00.426Z,12.73
2022-10-17T07:30:27.800Z,16.25
2022-10-17T07:33:03.708Z,13.70
2022-10-17T07:35:31.655Z,10.10
2022-10-17T07:37:59.000Z,12.20
2022-10-17T07:40:27.332Z,10.00
2022-10-17T07:42:56.377Z,11.55
2022-10-17T07:45:27.608Z,10.40
2022-10-17T07:47:58.602Z,10.88
2022-10-17T07:50:26.128Z,10.70
2022-10-17T07:52:53.481Z,12.07
2022-10-17T07:55:20.749Z,7.07
2022-10-17T07:57:48.031Z,9.43
2022-10-17T08:00:15.684Z,13.70
2022-10-17T08:02:43.078Z,11.63
2022-10-17T08:05:10.556Z,11.00
2022-10-17T08:07:37.895Z,9.27
2022-10-17T08:10:05.648Z,11.48
2022-10-17T08:12:34.437Z,8.63
2022-10-17T08:15:01.891Z,9.20
2022-10-17T08:17:29.199Z,10.90
2022-10-17T08:19:56.491Z,11.60
2022-10-17T08:22:23.821Z,8.00
2022-10-17T08:24:51.155Z,12.55
2022-10-17T08:27:23.877Z,9.02
2022-10-17T08:29:54.376Z,21.80
2022-10-17T08:32:26.445Z,16.35
2022-10-17T08:34:55.509Z,9.38
2022-10-17T08:37:23.278Z,7.25
2022-10-17T08:39:50.575Z,9.23
2022-10-17T08:42:36.410Z,7.68
2022-10-17T08:45:03.683Z,8.00
2022-10-17T08:47:42.468Z,7.18
2022-10-17T08:50:39.433Z,11.25
2022-10-17T08:53:15.909Z,19.58
2022-10-17T08:55:48.597Z,12.05
2022-10-17T08:58:22.060Z,8.63
2022-10-17T09:00:55.461Z,9.18
2022-10-17T09:03:27.416Z,8.27
2022-10-17T09:06:08.889Z,7.53
2022-10-17T09:08:54.905Z,6.95
2022-10-17T09:12:02.614Z,12.70
2022-10-17T09:14:43.166Z,8.30
2022-10-17T09:17:38.550Z,5.97
2022-10-17T09:20:20.731Z,4.75
2022-10-17T09:23:08.909Z,9.80
2022-10-17T09:25:44.827Z,8.52
2022-10-17T09:28:34.919Z,5.57
2022-10-17T09:31:04.963Z,6.13
2022-10-17T09:33:55.557Z,5.00
2022-10-17T09:36:39.485Z,9.48
2022-10-17T09:39:18.814Z,7.83
2022-10-17T09:41:53.139Z,7.93
2022-10-17T09:44:35.023Z,5.22
2022-10-17T09:47:14.329Z,4.75
2022-10-17T09:49:43.072Z,5.80
2022-10-17T09:52:33.663Z,4.40
2022-10-17T09:55:22.325Z,7.97
2022-10-17T09:57:57.747Z,10.60
2022-10-17T10:00:27.783Z,4.85
2022-10-17T10:03:21.515Z,7.72
2022-10-17T10:06:11.541Z,8.05
2022-10-17T10:09:00.440Z,6.53
2022-10-17T10:11:50.800Z,6.93
2022-10-17T10:14:35.636Z,4.72
2022-10-17T10:19:33.910Z,5.05
2022-10-17T10:22:05.492Z,6.03
2022-10-17T10:24:32.892Z,5.85
2022-10-17T10:27:02.040Z,5.03
2022-10-17T10:29:34.273Z,4.78
2022-10-17T10:32:18.815Z,6.38
2022-10-17T10:35:18.950Z,4.88
2022-10-17T10:37:50.812Z,8.05
2022-10-17T10:40:51.183Z,5.13
2022-10-17T10:43:42.143Z,12.15
2022-10-17T10:46:29.871Z,4.47
2022-10-17T10:49:00.151Z,2.90
2022-10-17T10:51:46.039Z,3.95
2022-10-17T10:54:25.165Z,5.45
2022-10-17T10:56:58.290Z,3.67
2022-10-17T10:59:41.165Z,5.40
2022-10-17T11:02:27.913Z,3.30
2022-10-17T11:04:59.899Z,4.72
2022-10-17T11:07:39.863Z,3.65
2022-10-17T11:10:19.246Z,5.40
2022-10-17T11:13:05.897Z,7.30
2022-10-17T11:15:58.051Z,4.80
2022-10-17T11:18:40.378Z,7.32
2022-10-17T11:21:20.151Z,5.97
2022-10-17T11:24:09.113Z,6.40
2022-10-17T11:26:40.914Z,6.57
2022-10-17T11:29:11.937Z,7.70
2022-10-17T11:31:41.960Z,4.57
2022-10-17T11:34:10.518Z,7.72
2022-10-17T11:36:40.440Z,7.25
2022-10-17T11:39:19.693Z,4.47
2022-10-17T11:42:12.277Z,4.68
2022-10-17T11:44:40.462Z,4.28
2022-10-17T11:47:27.294Z,5.50
2022-10-17T11:53:16.428Z,3.80
2022-10-17T11:55:43.788Z,3.83
2022-10-17T11:58:26.774Z,3.38
2022-10-17T12:01:16.093Z,4.30
2022-10-17T12:04:05.819Z,7.53
2022-10-17T12:06:55.888Z,2.72
2022-10-17T12:09:43.731Z,4.32
2022-10-17T12:12:11.038Z,5.15
2022-10-17T12:14:45.756Z,4.95
2022-10-17T12:17:39.124Z,4.05
2022-10-17T12:20:27.686Z,2.38
2022-10-17T12:23:13.455Z,5.10
2022-10-17T12:25:52.796Z,2.05
2022-10-17T12:28:33.111Z,4.03
2022-10-17T12:31:02.711Z,6.90
2022-10-17T12:33:37.753Z,28.55
2022-10-17T12:36:17.303Z,91.30
2022-10-17T12:38:49.230Z,70.47
2022-10-17T12:41:37.703Z,4.53
2022-10-17T12:44:14.686Z,4.30
2022-10-17T12:47:00.852Z,3.38
2022-10-17T12:49:45.428Z,4.43
2022-10-17T12:52:39.133Z,6.47
2022-10-17T12:55:18.608Z,3.53
2022-10-17T12:58:12.896Z,3.20
2022-10-17T13:01:11.802Z,2.05
2022-10-17T13:03:44.409Z,3.95
2022-10-17T13:06:18.440Z,6.68
2022-10-17T13:08:48.858Z,7.10
2022-10-17T13:11:23.192Z,2.92
2022-10-17T13:13:52.660Z,3.45
2022-10-17T13:16:33.794Z,6.57
2022-10-17T13:19:02.287Z,4.63
2022-10-17T13:21:29.724Z,3.40
2022-10-17T13:23:57.071Z,4.75
2022-10-17T13:26:26.265Z,7.15
2022-10-17T13:31:44.021Z,5.72
2022-10-17T13:34:25.048Z,4.50
2022-10-17T13:37:03.095Z,4.53
2022-10-17T13:39:54.316Z,2.65
2022-10-17T13:42:29.711Z,2.33
2022-10-17T13:44:57.811Z,2.80
2022-10-17T13:47:30.092Z,3.10
2022-10-17T13:49:57.701Z,4.18
2022-10-17T13:52:27.122Z,2.28
2022-10-17T13:54:54.904Z,4.20
2022-10-17T13:57:30.553Z,4.88
2022-10-17T14:00:09.856Z,6.05
2022-10-17T14:02:42.036Z,3.53
2022-10-17T14:05:18.953Z,3.33
2022-10-17T14:08:10.883Z,8.07
2022-10-17T14:10:39.497Z,3.05
2022-10-17T14:13:08.242Z,3.05
2022-10-17T14:15:36.143Z,4.03
2022-10-17T14:18:08.917Z,3.97
2022-10-17T14:23:31.089Z,3.92
2022-10-17T14:26:11.588Z,3.42
2022-10-17T14:28:39.793Z,3.20
2022-10-17T14:31:25.525Z,4.15
2022-10-17T14:33:53.401Z,5.07
2022-10-17T14:36:21.468Z,5.35
2022-10-17T14:38:51.140Z,5.22
2022-10-17T14:41:43.718Z,8.32
2022-10-17T14:44:32.266Z,7.63
2022-10-17T14:47:30.667Z,3.25
2022-10-17T14:50:08.606Z,3.15
2022-10-17T14:52:36.250Z,7.38
2022-10-17T14:55:23.607Z,5.57
2022-10-17T14:57:50.906Z,3.22
2022-10-17T15:00:19.289Z,3.53
2022-10-17T15:02:46.986Z,4.30
2022-10-17T15:05:14.499Z,5.13
2022-10-17T15:07:42.267Z,4.85
2022-10-17T15:10:26.461Z,5.97
2022-10-17T15:12:59.095Z,5.28
2022-10-17T15:15:30.628Z,11.43
2022-10-17T15:17:58.002Z,5.88
2022-10-17T15:20:27.851Z,5.13
2022-10-17T15:22:55.589Z,8.07
2022-10-17T15:25:22.979Z,10.20
2022-10-17T15:27:50.433Z,4.47
2022-10-17T15:30:34.296Z,6.57
2022-10-17T15:33:01.665Z,7.13
2022-10-17T15:35:28.998Z,7.78
2022-10-17T15:37:56.284Z,6.75
2022-10-17T15:40:28.848Z,4.53
2022-10-17T15:42:56.450Z,5.40
2022-10-17T15:45:23.816Z,10.68
2022-10-17T15:47:56.071Z,5.07
2022-10-17T15:50:23.368Z,9.18
2022-10-17T15:52:51.095Z,7.38
2022-10-17T15:55:18.826Z,7.63
2022-10-17T15:57:46.603Z,8.18
2022-10-17T16:00:21.844Z,12.02
2022-10-17T16:02:49.825Z,7.07
2022-10-17T16:05:25.982Z,10.48
2022-10-17T16:07:53.817Z,10.07
2022-10-17T16:10:21.903Z,6.95
2022-10-17T16:12:50.256Z,7.03
2022-10-17T16:15:25.567Z,11.40
2022-10-17T16:17:53.606Z,9.02
2022-10-17T16:20:21.249Z,9.75
2022-10-17T16:22:48.787Z,13.15
2022-10-17T16:25:27.875Z,14.57
2022-10-17T16:27:56.493Z,13.32
2022-10-17T16:30:25.139Z,9.48
2022-10-17T16:32:53.275Z,17.48
2022-10-17T16:35:22.943Z,12.23
2022-10-17T16:37:50.364Z,7.15
2022-10-17T16:40:17.809Z,9.68
2022-10-17T16:42:45.253Z,9.30
2022-10-17T16:45:20.444Z,11.45
2022-10-17T16:47:47.939Z,5.85
2022-10-17T16:50:15.418Z,9.50
2022-10-17T16:52:42.780Z,11.18
2022-10-17T16:55:10.396Z,15.60
2022-10-17T16:57:37.879Z,7.93
2022-10-17T17:00:06.270Z,9.27
2022-10-17T17:02:33.968Z,10.75
2022-10-17T17:05:01.440Z,11.43
2022-10-17T17:07:29.873Z,11.43
2022-10-17T17:09:57.477Z,9.88
2022-10-17T17:12:24.825Z,9.68
2022-10-17T17:14:52.114Z,11.60
2022-10-17T17:17:30.473Z,11.20
2022-10-17T17:20:07.032Z,9.65
2022-10-17T17:22:34.926Z,9.55
2022-10-17T17:25:02.285Z,11.23
2022-10-17T17:27:29.893Z,11.55
2022-10-17T17:29:57.424Z,11.95
2022-10-17T17:32:24.808Z,10.55
2022-10-17T17:34:52.082Z,8.70
2022-10-17T17:37:19.427Z,10.02
2022-10-17T17:39:46.688Z,6.40
2022-10-17T17:42:13.956Z,12.55
2022-10-17T17:44:41.259Z,8.55
2022-10-17T17:47:08.596Z,9.48
2022-10-17T17:49:35.911Z,9.13
2022-10-17T17:54:38.564Z,15.93
2022-10-17T17:57:08.174Z,6.80
2022-10-17T17:59:35.511Z,11.63
2022-10-17T18:02:02.961Z,10.48
2022-10-17T18:04:30.403Z,12.75
2022-10-17T18:06:57.707Z,9.50
2022-10-17T18:09:25.023Z,12.65
2022-10-17T18:11:52.539Z,20.05
2022-10-17T18:14:23.766Z,13.77
2022-10-17T18:16:51.282Z,13.63
2022-10-17T18:19:18.799Z,13.40
2022-10-17T18:21:46.215Z,10.10
2022-10-17T18:24:13.487Z,14.43
2022-10-17T18:26:41.101Z,15.32
2022-10-17T18:29:08.514Z,24.83
2022-10-17T18:31:36.283Z,15.30
2022-10-17T18:34:04.511Z,18.55
2022-10-17T18:36:32.571Z,16.85
2022-10-17T18:39:00.254Z,13.82
2022-10-17T18:41:27.787Z,18.75
2022-10-17T18:43:55.475Z,15.65
2022-10-17T18:46:30.879Z,15.80
2022-10-17T18:48:58.543Z,15.23
2022-10-17T18:51:26.093Z,27.58
2022-10-17T18:53:55.667Z,20.65
2022-10-17T18:56:23.313Z,16.27
2022-10-17T18:58:50.770Z,18.52
2022-10-17T19:01:23.865Z,16.92
2022-10-17T19:03:52.980Z,15.95
2022-10-17T19:06:21.838Z,14.50
2022-10-17T19:08:49.242Z,17.25
2022-10-17T19:11:21.732Z,19.63
2022-10-17T19:13:49.285Z,17.50
2022-10-17T19:16:25.710Z,21.48
2022-10-17T19:18:55.262Z,22.05
2022-10-17T19:21:22.589Z,23.35
2022-10-17T19:23:54.626Z,20.52
2022-10-17T19:26:22.865Z,23.65
2022-10-17T19:28:53.298Z,20.98
2022-10-17T19:31:27.102Z,21.13
2022-10-17T19:33:55.189Z,23.15
2022-10-17T19:36:27.513Z,21.08
2022-10-17T19:38:58.168Z,22.83
2022-10-17T19:41:25.704Z,26.45
2022-10-17T19:43:52.990Z,20.55
2022-10-17T19:46:21.837Z,23.88
2022-10-17T19:48:49.431Z,23.50
2022-10-17T19:51:18.008Z,27.40
2022-10-17T19:53:45.464Z,26.65
2022-10-17T19:56:12.855Z,20.23
2022-10-17T19:58:46.521Z,22.05
2022-10-17T20:01:20.025Z,20.77
2022-10-17T20:03:47.674Z,21.70
2022-10-17T20:06:15.387Z,24.00
2022-10-17T20:08:42.781Z,20.63
2022-10-17T20:11:21.495Z,26.90
2022-10-17T20:13:48.981Z,23.25
2022-10-17T20:16:18.384Z,18.98
2022-10-17T20:18:46.044Z,17.83
2022-10-17T20:21:15.187Z,23.38
2022-10-17T20:23:43.294Z,23.70
2022-10-17T20:26:25.787Z,20.23
2022-10-17T20:29:02.508Z,17.73
2022-10-17T20:31:30.114Z,23.15
2022-10-17T20:33:58.179Z,16.88
2022-10-17T20:36:25.798Z,18.80
2022-10-17T20:38:56.926Z,19.40
2022-10-17T20:41:24.545Z,24.60
2022-10-17T20:43:52.391Z,19.85
2022-10-17T20:46:36.477Z,19.73
2022-10-17T20:49:07.873Z,19.33
2022-10-17T20:51:35.337Z,17.33
2022-10-17T20:54:03.322Z,18.13
2022-10-17T20:56:31.587Z,17.17
2022-10-17T20:59:12.833Z,20.13
2022-10-17T21:01:40.321Z,19.17
2022-10-17T21:06:55.042Z,29.02
2022-10-17T21:09:22.603Z,19.02
2022-10-17T21:11:55.590Z,20.52
2022-10-17T21:14:23.976Z,14.90
2022-10-17T21:16:52.264Z,22.45
2022-10-17T21:19:19.792Z,19.80
2022-10-17T21:21:47.288Z,23.25
2022-10-17T21:24:17.851Z,18.38
2022-10-17T21:26:45.732Z,18.63
2022-10-17T21:29:13.498Z,18.38
2022-10-17T21:31:42.188Z,20.38
2022-10-17T21:34:14.174Z,24.27
2022-10-17T21:36:41.706Z,20.52
2022-10-17T21:39:10.135Z,18.40
2022-10-17T21:41:37.660Z,21.55
2022-10-17T21:44:06.994Z,20.65
2022-10-17T21:46:34.308Z,15.10
2022-10-17T21:49:01.674Z,21.50
2022-10-17T21:51:29.075Z,17.95
2022-10-17T21:53:57.405Z,17.02
2022-10-17T21:56:28.142Z,18.60
2022-10-17T21:58:55.566Z,17.75
2022-10-17T22:01:34.381Z,19.88
2022-10-17T22:04:03.183Z,17.30
2022-10-17T22:06:39.710Z,19.08
2022-10-17T22:09:21.915Z,15.00
2022-10-17T22:11:55.674Z,16.08
2022-10-17T22:14:24.047Z,19.77
2022-10-17T22:16:51.431Z,17.27
2022-10-17T22:19:21.096Z,14.38
2022-10-17T22:21:48.574Z,15.15
2022-10-17T22:24:19.194Z,19.30
2022-10-17T22:26:46.687Z,19.05
2022-10-17T22:29:14.161Z,20.55
2022-10-17T22:31:41.556Z,14.98
2022-10-17T22:34:10.389Z,16.50
2022-10-17T22:36:37.714Z,11.13
2022-10-17T22:39:05.006Z,12.15
2022-10-17T22:41:32.811Z,11.75
2022-10-17T22:44:00.149Z,14.30
2022-10-17T22:46:27.625Z,13.90
2022-10-17T22:48:54.898Z,11.82
2022-10-17T22:53:54.547Z,12.75
2022-10-17T22:56:22.828Z,12.23
2022-10-17T22:58:50.380Z,14.15
2022-10-17T23:01:22.762Z,12.35
2022-10-17T23:03:50.734Z,16.08
2022-10-17T23:06:18.355Z,12.13
2022-10-17T23:08:45.786Z,11.30
2022-10-17T23:11:13.080Z,13.75
2022-10-17T23:13:40.916Z,11.13
2022-10-17T23:16:08.506Z,13.93
2022-10-17T23:18:36.643Z,14.45
2022-10-17T23:21:04.088Z,12.02
2022-10-17T23:23:31.375Z,12.30
2022-10-17T23:26:12.128Z,11.25
2022-10-17T23:28:39.654Z,12.50
2022-10-17T23:31:15.301Z,13.07
2022-10-17T23:33:44.786Z,11.30
2022-10-17T23:36:13.235Z,10.25
2022-10-17T23:38:41.313Z,15.82
2022-10-17T23:41:08.684Z,13.73
2022-10-17T23:43:36.099Z,13.07
2022-10-17T23:46:03.782Z,14.90
2022-10-17T23:48:31.166Z,13.18
2022-10-17T23:50:58.483Z,12.40
2022-10-17T23:53:25.822Z,13.00
2022-10-17T23:55:53.082Z,13.77
2022-10-17T23:58:20.383Z,10.45
